sensor_id;sensor_type;location;lat;lon;timestamp;P1;durP1;ratioP1;P2;durP2;ratioP2
49217;SDS011;35045;51.194;7.268;2022-12-07T00:01:17;551.75;;;80.63;;
49217;SDS011;35045;51.194;7.268;2022-12-07T00:03:46;684.67;;;101.03;;
49217;SDS011;35045;51.194;7.268;2022-12-07T00:06:14;591.50;;;96.40;;
49217;SDS011;35045;51.194;7.268;2022-12-07T00:08:41;421.90;;;64.35;;
49217;SDS011;35045;51.194;7.268;2022-12-07T00:11:09;510.35;;;79.40;;
49217;SDS011;35045;51.194;7.268;2022-12-07T00:13:37;441.15;;;75.07;;
49217;SDS011;35045;51.194;7.268;2022-12-07T00:16:05;320.45;;;56.17;;
49217;SDS011;35045;51.194;7.268;2022-12-07T00:18:33;298.27;;;52.78;;
49217;SDS011;35045;51.194;7.268;2022-12-07T00:21:00;94.43;;;36.60;;
49217;SDS011;35045;51.194;7.268;2022-12-07T00:23:30;248.63;;;53.10;;
49217;SDS011;35045;51.194;7.268;2022-12-07T00:26:02;78.75;;;35.40;;
49217;SDS011;35045;51.194;7.268;2022-12-07T00:28:29;173.10;;;43.15;;
49217;SDS011;35045;51.194;7.268;2022-12-07T00:31:02;255.93;;;55.05;;
49217;SDS011;35045;51.194;7.268;2022-12-07T00:33:31;51.80;;;30.90;;
49217;SDS011;35045;51.194;7.268;2022-12-07T00:35:58;65.60;;;32.22;;
49217;SDS011;35045;51.194;7.268;2022-12-07T00:38:27;47.80;;;31.08;;
49217;SDS011;35045;51.194;7.268;2022-12-07T00:40:56;36.53;;;29.00;;
49217;SDS011;35045;51.194;7.268;2022-12-07T00:43:23;40.75;;;28.67;;
49217;SDS011;35045;51.194;7.268;2022-12-07T00:45:49;101.28;;;34.42;;
49217;SDS011;35045;51.194;7.268;2022-12-07T00:48:16;112.18;;;34.30;;
49217;SDS011;35045;51.194;7.268;2022-12-07T00:50:42;47.88;;;28.50;;
49217;SDS011;35045;51.194;7.268;2022-12-07T00:53:09;111.95;;;37.30;;
49217;SDS011;35045;51.194;7.268;2022-12-07T00:55:35;54.17;;;29.65;;
49217;SDS011;35045;51.194;7.268;2022-12-07T00:58:02;40.10;;;30.40;;
49217;SDS011;35045;51.194;7.268;2022-12-07T01:00:28;83.13;;;33.45;;
49217;SDS011;35045;51.194;7.268;2022-12-07T01:02:55;40.10;;;28.83;;
49217;SDS011;35045;51.194;7.268;2022-12-07T01:05:21;86.45;;;34.78;;
49217;SDS011;35045;51.194;7.268;2022-12-07T01:07:47;129.02;;;36.45;;
49217;SDS011;35045;51.194;7.268;2022-12-07T01:10:14;56.40;;;28.85;;
49217;SDS011;35045;51.194;7.268;2022-12-07T01:12:40;148.15;;;33.95;;
49217;SDS011;35045;51.194;7.268;2022-12-07T01:15:06;48.70;;;27.50;;
49217;SDS011;35045;51.194;7.268;2022-12-07T01:17:33;68.97;;;30.88;;
49217;SDS011;35045;51.194;7.268;2022-12-07T01:20:00;105.35;;;33.70;;
49217;SDS011;35045;51.194;7.268;2022-12-07T01:22:27;141.65;;;36.90;;
49217;SDS011;35045;51.194;7.268;2022-12-07T01:24:53;81.88;;;32.65;;
49217;SDS011;35045;51.194;7.268;2022-12-07T01:27:19;144.13;;;39.10;;
49217;SDS011;35045;51.194;7.268;2022-12-07T01:29:45;32.38;;;27.60;;
49217;SDS011;35045;51.194;7.268;2022-12-07T01:32:12;37.95;;;27.42;;
49217;SDS011;35045;51.194;7.268;2022-12-07T01:34:38;48.60;;;29.55;;
49217;SDS011;35045;51.194;7.268;2022-12-07T01:37:04;38.67;;;28.98;;
49217;SDS011;35045;51.194;7.268;2022-12-07T01:39:30;40.55;;;30.17;;
49217;SDS011;35045;51.194;7.268;2022-12-07T01:41:57;35.83;;;30.48;;
49217;SDS011;35045;51.194;7.268;2022-12-07T01:46:50;35.13;;;29.85;;
49217;SDS011;35045;51.194;7.268;2022-12-07T01:49:41;38.25;;;32.72;;
49217;SDS011;35045;51.194;7.268;2022-12-07T01:52:18;139.75;;;38.65;;
49217;SDS011;35045;51.194;7.268;2022-12-07T01:54:50;123.20;;;38.85;;
49217;SDS011;35045;51.194;7.268;2022-12-07T01:57:19;196.98;;;45.72;;
49217;SDS011;35045;51.194;7.268;2022-12-07T01:59:47;110.97;;;37.78;;
49217;SDS011;35045;51.194;7.268;2022-12-07T02:02:20;75.75;;;33.10;;
49217;SDS011;35045;51.194;7.268;2022-12-07T02:04:52;42.97;;;31.80;;
49217;SDS011;35045;51.194;7.268;2022-12-07T02:07:19;78.25;;;34.70;;
49217;SDS011;35045;51.194;7.268;2022-12-07T02:09:47;66.20;;;33.33;;
49217;SDS011;35045;51.194;7.268;2022-12-07T02:12:13;179.90;;;44.25;;
49217;SDS011;35045;51.194;7.268;2022-12-07T02:14:39;188.40;;;43.88;;
49217;SDS011;35045;51.194;7.268;2022-12-07T02:17:21;140.50;;;43.53;;
49217;SDS011;35045;51.194;7.268;2022-12-07T02:20:03;198.70;;;44.47;;
49217;SDS011;35045;51.194;7.268;2022-12-07T02:31:34;274.48;;;51.50;;
49217;SDS011;35045;51.194;7.268;2022-12-07T02:34:05;269.27;;;53.55;;
49217;SDS011;35045;51.194;7.268;2022-12-07T02:36:39;438.88;;;61.75;;
49217;SDS011;35045;51.194;7.268;2022-12-07T02:39:11;301.73;;;59.45;;
49217;SDS011;35045;51.194;7.268;2022-12-07T02:41:48;424.63;;;70.85;;
49217;SDS011;35045;51.194;7.268;2022-12-07T02:44:19;672.70;;;102.88;;
49217;SDS011;35045;51.194;7.268;2022-12-07T02:46:51;499.20;;;85.43;;
49217;SDS011;35045;51.194;7.268;2022-12-07T02:49:21;448.10;;;82.95;;
49217;SDS011;35045;51.194;7.268;2022-12-07T02:51:49;466.05;;;80.22;;
49217;SDS011;35045;51.194;7.268;2022-12-07T02:54:18;355.60;;;59.25;;
49217;SDS011;35045;51.194;7.268;2022-12-07T02:56:47;478.92;;;77.65;;
49217;SDS011;35045;51.194;7.268;2022-12-07T02:59:22;460.92;;;78.60;;
49217;SDS011;35045;51.194;7.268;2022-12-07T03:05:01;384.20;;;64.78;;
49217;SDS011;35045;51.194;7.268;2022-12-07T03:08:44;126.55;;;46.42;;
49217;SDS011;35045;51.194;7.268;2022-12-07T03:16:17;196.18;;;49.13;;
49217;SDS011;35045;51.194;7.268;2022-12-07T03:19:00;197.75;;;53.30;;
49217;SDS011;35045;51.194;7.268;2022-12-07T03:21:32;58.58;;;39.05;;
49217;SDS011;35045;51.194;7.268;2022-12-07T03:24:04;65.22;;;38.20;;
49217;SDS011;35045;51.194;7.268;2022-12-07T03:26:36;75.05;;;40.30;;
49217;SDS011;35045;51.194;7.268;2022-12-07T03:29:10;132.38;;;47.08;;
49217;SDS011;35045;51.194;7.268;2022-12-07T03:31:41;210.85;;;49.50;;
49217;SDS011;35045;51.194;7.268;2022-12-07T03:34:13;163.55;;;50.08;;
49217;SDS011;35045;51.194;7.268;2022-12-07T03:39:33;56.63;;;37.70;;
49217;SDS011;35045;51.194;7.268;2022-12-07T03:42:15;67.20;;;39.88;;
49217;SDS011;35045;51.194;7.268;2022-12-07T03:44:41;50.33;;;35.58;;
49217;SDS011;35045;51.194;7.268;2022-12-07T03:49:57;58.63;;;38.15;;
49217;SDS011;35045;51.194;7.268;2022-12-07T03:55:00;53.35;;;38.08;;
49217;SDS011;35045;51.194;7.268;2022-12-07T03:57:32;63.72;;;39.58;;
49217;SDS011;35045;51.194;7.268;2022-12-07T04:00:00;51.05;;;35.55;;
49217;SDS011;35045;51.194;7.268;2022-12-07T04:02:28;53.65;;;36.97;;
49217;SDS011;35045;51.194;7.268;2022-12-07T04:04:55;53.90;;;37.45;;
49217;SDS011;35045;51.194;7.268;2022-12-07T04:07:22;52.10;;;38.35;;
49217;SDS011;35045;51.194;7.268;2022-12-07T04:09:48;50.72;;;35.53;;
49217;SDS011;35045;51.194;7.268;2022-12-07T04:12:15;48.92;;;36.03;;
49217;SDS011;35045;51.194;7.268;2022-12-07T04:14:41;56.15;;;35.47;;
49217;SDS011;35045;51.194;7.268;2022-12-07T04:17:07;53.25;;;39.20;;
49217;SDS011;35045;51.194;7.268;2022-12-07T04:19:34;50.30;;;37.38;;
49217;SDS011;35045;51.194;7.268;2022-12-07T04:22:01;53.88;;;36.95;;
49217;SDS011;35045;51.194;7.268;2022-12-07T04:24:28;50.92;;;35.92;;
49217;SDS011;35045;51.194;7.268;2022-12-07T04:26:55;47.40;;;33.72;;
49217;SDS011;35045;51.194;7.268;2022-12-07T04:29:22;48.60;;;34.25;;
49217;SDS011;35045;51.194;7.268;2022-12-07T04:31:48;45.60;;;35.05;;
49217;SDS011;35045;51.194;7.268;2022-12-07T04:34:15;49.58;;;36.00;;
49217;SDS011;35045;51.194;7.268;2022-12-07T04:36:42;51.33;;;36.75;;
49217;SDS011;35045;51.194;7.268;2022-12-07T04:41:49;52.00;;;37.08;;
49217;SDS011;35045;51.194;7.268;2022-12-07T04:44:15;49.95;;;36.95;;
49217;SDS011;35045;51.194;7.268;2022-12-07T04:46:42;49.95;;;35.25;;
49217;SDS011;35045;51.194;7.268;2022-12-07T04:49:09;46.92;;;34.38;;
49217;SDS011;35045;51.194;7.268;2022-12-07T04:51:36;51.65;;;37.58;;
49217;SDS011;35045;51.194;7.268;2022-12-07T04:54:02;46.25;;;34.72;;
49217;SDS011;35045;51.194;7.268;2022-12-07T04:56:28;46.08;;;32.90;;
49217;SDS011;35045;51.194;7.268;2022-12-07T04:58:54;51.47;;;33.05;;
49217;SDS011;35045;51.194;7.268;2022-12-07T05:01:21;47.08;;;32.20;;
49217;SDS011;35045;51.194;7.268;2022-12-07T05:03:48;42.75;;;31.33;;
49217;SDS011;35045;51.194;7.268;2022-12-07T05:06:15;43.40;;;31.92;;
49217;SDS011;35045;51.194;7.268;2022-12-07T05:08:41;43.92;;;32.38;;
49217;SDS011;35045;51.194;7.268;2022-12-07T05:11:09;36.80;;;28.23;;
49217;SDS011;35045;51.194;7.268;2022-12-07T05:13:55;37.40;;;27.08;;
49217;SDS011;35045;51.194;7.268;2022-12-07T05:16:22;31.20;;;23.23;;
49217;SDS011;35045;51.194;7.268;2022-12-07T05:18:49;36.33;;;26.45;;
49217;SDS011;35045;51.194;7.268;2022-12-07T05:21:15;34.97;;;25.88;;
49217;SDS011;35045;51.194;7.268;2022-12-07T05:23:41;36.25;;;27.70;;
49217;SDS011;35045;51.194;7.268;2022-12-07T05:26:07;35.58;;;26.55;;
49217;SDS011;35045;51.194;7.268;2022-12-07T05:28:33;34.20;;;26.38;;
49217;SDS011;35045;51.194;7.268;2022-12-07T05:30:59;39.85;;;29.30;;
49217;SDS011;35045;51.194;7.268;2022-12-07T05:33:25;40.15;;;29.20;;
49217;SDS011;35045;51.194;7.268;2022-12-07T05:35:52;38.90;;;28.52;;
49217;SDS011;35045;51.194;7.268;2022-12-07T05:38:18;42.20;;;32.13;;
49217;SDS011;35045;51.194;7.268;2022-12-07T05:40:44;43.45;;;31.00;;
49217;SDS011;35045;51.194;7.268;2022-12-07T05:43:10;42.67;;;28.92;;
49217;SDS011;35045;51.194;7.268;2022-12-07T05:45:36;37.20;;;27.30;;
49217;SDS011;35045;51.194;7.268;2022-12-07T05:48:02;42.47;;;31.30;;
49217;SDS011;35045;51.194;7.268;2022-12-07T05:50:29;43.90;;;28.88;;
49217;SDS011;35045;51.194;7.268;2022-12-07T05:52:55;44.28;;;30.15;;
49217;SDS011;35045;51.194;7.268;2022-12-07T05:55:21;43.80;;;29.67;;
49217;SDS011;35045;51.194;7.268;2022-12-07T05:57:47;43.95;;;30.55;;
49217;SDS011;35045;51.194;7.268;2022-12-07T06:00:32;47.67;;;30.67;;
49217;SDS011;35045;51.194;7.268;2022-12-07T06:02:58;46.58;;;32.33;;
49217;SDS011;35045;51.194;7.268;2022-12-07T06:05:25;44.78;;;29.70;;
49217;SDS011;35045;51.194;7.268;2022-12-07T06:07:51;42.08;;;30.08;;
49217;SDS011;35045;51.194;7.268;2022-12-07T06:10:17;48.33;;;31.42;;
49217;SDS011;35045;51.194;7.268;2022-12-07T06:12:43;50.00;;;34.03;;
49217;SDS011;35045;51.194;7.268;2022-12-07T06:15:12;57.25;;;34.47;;
49217;SDS011;35045;51.194;7.268;2022-12-07T06:17:38;48.72;;;33.63;;
49217;SDS011;35045;51.194;7.268;2022-12-07T06:20:05;49.88;;;34.10;;
49217;SDS011;35045;51.194;7.268;2022-12-07T06:22:32;52.78;;;33.65;;
49217;SDS011;35045;51.194;7.268;2022-12-07T06:24:58;49.83;;;35.83;;
49217;SDS011;35045;51.194;7.268;2022-12-07T06:27:24;52.28;;;34.90;;
49217;SDS011;35045;51.194;7.268;2022-12-07T06:29:50;56.10;;;34.55;;
49217;SDS011;35045;51.194;7.268;2022-12-07T06:32:17;44.25;;;33.22;;
49217;SDS011;35045;51.194;7.268;2022-12-07T06:34:43;51.92;;;34.60;;
49217;SDS011;35045;51.194;7.268;2022-12-07T06:37:09;51.75;;;33.17;;
49217;SDS011;35045;51.194;7.268;2022-12-07T06:39:35;47.30;;;33.03;;
49217;SDS011;35045;51.194;7.268;2022-12-07T06:42:01;43.58;;;32.63;;
49217;SDS011;35045;51.194;7.268;2022-12-07T06:44:28;44.22;;;30.75;;
49217;SDS011;35045;51.194;7.268;2022-12-07T06:46:54;43.92;;;32.28;;
49217;SDS011;35045;51.194;7.268;2022-12-07T06:49:31;47.72;;;29.63;;
49217;SDS011;35045;51.194;7.268;2022-12-07T06:51:57;43.15;;;29.92;;
49217;SDS011;35045;51.194;7.268;2022-12-07T06:54:23;38.83;;;28.70;;
49217;SDS011;35045;51.194;7.268;2022-12-07T06:56:50;38.78;;;28.30;;
49217;SDS011;35045;51.194;7.268;2022-12-07T06:59:16;41.90;;;28.50;;
49217;SDS011;35045;51.194;7.268;2022-12-07T07:01:42;45.05;;;30.88;;
49217;SDS011;35045;51.194;7.268;2022-12-07T07:04:08;38.00;;;28.00;;
49217;SDS011;35045;51.194;7.268;2022-12-07T07:06:34;42.92;;;29.90;;
49217;SDS011;35045;51.194;7.268;2022-12-07T07:09:01;37.45;;;28.00;;
49217;SDS011;35045;51.194;7.268;2022-12-07T07:11:27;41.83;;;29.50;;
49217;SDS011;35045;51.194;7.268;2022-12-07T07:13:54;38.45;;;27.02;;
49217;SDS011;35045;51.194;7.268;2022-12-07T07:16:23;37.38;;;26.55;;
49217;SDS011;35045;51.194;7.268;2022-12-07T07:18:49;41.55;;;29.45;;
49217;SDS011;35045;51.194;7.268;2022-12-07T07:21:16;40.72;;;28.27;;
49217;SDS011;35045;51.194;7.268;2022-12-07T07:23:42;42.40;;;28.27;;
49217;SDS011;35045;51.194;7.268;2022-12-07T07:26:08;45.10;;;30.35;;
49217;SDS011;35045;51.194;7.268;2022-12-07T07:28:34;43.53;;;28.63;;
49217;SDS011;35045;51.194;7.268;2022-12-07T07:31:00;39.95;;;28.33;;
49217;SDS011;35045;51.194;7.268;2022-12-07T07:33:26;41.22;;;28.08;;
49217;SDS011;35045;51.194;7.268;2022-12-07T07:35:53;37.20;;;27.27;;
49217;SDS011;35045;51.194;7.268;2022-12-07T07:38:19;30.65;;;23.77;;
49217;SDS011;35045;51.194;7.268;2022-12-07T07:40:45;33.10;;;22.95;;
49217;SDS011;35045;51.194;7.268;2022-12-07T07:43:11;35.72;;;24.92;;
49217;SDS011;35045;51.194;7.268;2022-12-07T07:45:37;33.33;;;24.35;;
49217;SDS011;35045;51.194;7.268;2022-12-07T07:48:03;36.40;;;26.55;;
49217;SDS011;35045;51.194;7.268;2022-12-07T07:50:30;37.13;;;26.52;;
49217;SDS011;35045;51.194;7.268;2022-12-07T07:52:56;38.15;;;28.38;;
49217;SDS011;35045;51.194;7.268;2022-12-07T07:55:23;37.47;;;27.20;;
49217;SDS011;35045;51.194;7.268;2022-12-07T07:57:49;32.13;;;23.23;;
49217;SDS011;35045;51.194;7.268;2022-12-07T08:00:19;32.72;;;24.40;;
49217;SDS011;35045;51.194;7.268;2022-12-07T08:02:45;28.13;;;20.02;;
49217;SDS011;35045;51.194;7.268;2022-12-07T08:05:12;23.95;;;18.35;;
49217;SDS011;35045;51.194;7.268;2022-12-07T08:07:39;27.70;;;19.38;;
49217;SDS011;35045;51.194;7.268;2022-12-07T08:10:05;25.45;;;19.23;;
49217;SDS011;35045;51.194;7.268;2022-12-07T08:12:35;26.42;;;19.55;;
49217;SDS011;35045;51.194;7.268;2022-12-07T08:15:03;29.25;;;20.52;;
49217;SDS011;35045;51.194;7.268;2022-12-07T08:17:29;28.77;;;20.73;;
49217;SDS011;35045;51.194;7.268;2022-12-07T08:19:55;28.30;;;21.13;;
49217;SDS011;35045;51.194;7.268;2022-12-07T08:22:22;28.35;;;20.92;;
49217;SDS011;35045;51.194;7.268;2022-12-07T08:24:48;30.25;;;21.20;;
49217;SDS011;35045;51.194;7.268;2022-12-07T08:27:14;31.85;;;22.17;;
49217;SDS011;35045;51.194;7.268;2022-12-07T08:29:40;31.77;;;21.90;;
49217;SDS011;35045;51.194;7.268;2022-12-07T08:32:06;31.80;;;23.85;;
49217;SDS011;35045;51.194;7.268;2022-12-07T08:34:34;30.67;;;21.15;;
49217;SDS011;35045;51.194;7.268;2022-12-07T08:37:01;30.92;;;22.50;;
49217;SDS011;35045;51.194;7.268;2022-12-07T08:39:27;32.13;;;22.83;;
49217;SDS011;35045;51.194;7.268;2022-12-07T08:41:55;30.65;;;22.80;;
49217;SDS011;35045;51.194;7.268;2022-12-07T08:44:22;32.42;;;22.10;;
49217;SDS011;35045;51.194;7.268;2022-12-07T08:46:49;31.58;;;24.30;;
49217;SDS011;35045;51.194;7.268;2022-12-07T08:49:31;32.13;;;24.08;;
49217;SDS011;35045;51.194;7.268;2022-12-07T08:52:05;30.70;;;24.00;;
49217;SDS011;35045;51.194;7.268;2022-12-07T08:54:31;33.10;;;24.67;;
49217;SDS011;35045;51.194;7.268;2022-12-07T08:57:01;40.15;;;27.95;;
49217;SDS011;35045;51.194;7.268;2022-12-07T08:59:27;40.30;;;30.85;;
49217;SDS011;35045;51.194;7.268;2022-12-07T09:01:54;45.05;;;31.38;;
49217;SDS011;35045;51.194;7.268;2022-12-07T09:04:21;38.67;;;29.75;;
49217;SDS011;35045;51.194;7.268;2022-12-07T09:06:47;43.88;;;29.75;;
49217;SDS011;35045;51.194;7.268;2022-12-07T09:09:14;38.30;;;27.63;;
49217;SDS011;35045;51.194;7.268;2022-12-07T09:11:40;37.75;;;28.60;;
49217;SDS011;35045;51.194;7.268;2022-12-07T09:14:07;35.00;;;27.52;;
49217;SDS011;35045;51.194;7.268;2022-12-07T09:16:33;37.30;;;27.58;;
49217;SDS011;35045;51.194;7.268;2022-12-07T09:18:59;37.35;;;26.50;;
49217;SDS011;35045;51.194;7.268;2022-12-07T09:21:25;33.03;;;25.52;;
49217;SDS011;35045;51.194;7.268;2022-12-07T09:23:52;33.53;;;24.50;;
49217;SDS011;35045;51.194;7.268;2022-12-07T09:26:18;29.73;;;21.58;;
49217;SDS011;35045;51.194;7.268;2022-12-07T09:28:44;29.40;;;23.88;;
49217;SDS011;35045;51.194;7.268;2022-12-07T09:31:10;29.20;;;23.35;;
49217;SDS011;35045;51.194;7.268;2022-12-07T09:33:47;30.75;;;22.08;;
49217;SDS011;35045;51.194;7.268;2022-12-07T09:36:22;29.07;;;22.40;;
49217;SDS011;35045;51.194;7.268;2022-12-07T09:38:49;25.02;;;20.17;;
49217;SDS011;35045;51.194;7.268;2022-12-07T09:41:15;26.98;;;19.08;;
49217;SDS011;35045;51.194;7.268;2022-12-07T09:43:41;20.25;;;14.35;;
49217;SDS011;35045;51.194;7.268;2022-12-07T09:46:09;18.67;;;13.07;;
49217;SDS011;35045;51.194;7.268;2022-12-07T09:48:39;20.48;;;14.32;;
49217;SDS011;35045;51.194;7.268;2022-12-07T09:51:24;17.05;;;13.48;;
49217;SDS011;35045;51.194;7.268;2022-12-07T09:53:51;18.85;;;13.32;;
49217;SDS011;35045;51.194;7.268;2022-12-07T09:56:19;17.58;;;13.50;;
49217;SDS011;35045;51.194;7.268;2022-12-07T09:58:46;20.48;;;15.27;;
49217;SDS011;35045;51.194;7.268;2022-12-07T10:01:17;21.48;;;14.63;;
49217;SDS011;35045;51.194;7.268;2022-12-07T10:03:50;22.70;;;15.18;;
49217;SDS011;35045;51.194;7.268;2022-12-07T10:06:18;22.85;;;16.60;;
49217;SDS011;35045;51.194;7.268;2022-12-07T10:08:45;20.80;;;16.52;;
49217;SDS011;35045;51.194;7.268;2022-12-07T10:11:11;22.55;;;17.38;;
49217;SDS011;35045;51.194;7.268;2022-12-07T10:13:41;22.30;;;17.20;;
49217;SDS011;35045;51.194;7.268;2022-12-07T10:16:28;26.70;;;17.70;;
49217;SDS011;35045;51.194;7.268;2022-12-07T10:19:21;25.10;;;17.45;;
49217;SDS011;35045;51.194;7.268;2022-12-07T10:24:40;21.77;;;18.13;;
49217;SDS011;35045;51.194;7.268;2022-12-07T10:27:42;24.08;;;18.42;;
49217;SDS011;35045;51.194;7.268;2022-12-07T10:30:01;26.52;;;18.63;;
49217;SDS011;35045;51.194;7.268;2022-12-07T10:32:34;32.00;;;19.55;;
49217;SDS011;35045;51.194;7.268;2022-12-07T10:37:48;24.98;;;18.50;;
49217;SDS011;35045;51.194;7.268;2022-12-07T10:43:00;27.42;;;20.60;;
49217;SDS011;35045;51.194;7.268;2022-12-07T10:48:50;27.17;;;20.60;;
49217;SDS011;35045;51.194;7.268;2022-12-07T10:51:27;25.75;;;21.77;;
49217;SDS011;35045;51.194;7.268;2022-12-07T10:54:12;25.73;;;21.73;;
49217;SDS011;35045;51.194;7.268;2022-12-07T10:56:55;30.77;;;21.67;;
49217;SDS011;35045;51.194;7.268;2022-12-07T11:00:00;30.90;;;21.63;;
49217;SDS011;35045;51.194;7.268;2022-12-07T11:02:32;27.38;;;20.88;;
49217;SDS011;35045;51.194;7.268;2022-12-07T11:11:09;21.75;;;18.98;;
49217;SDS011;35045;51.194;7.268;2022-12-07T11:14:03;25.67;;;18.90;;
49217;SDS011;35045;51.194;7.268;2022-12-07T11:30:13;19.08;;;14.57;;
49217;SDS011;35045;51.194;7.268;2022-12-07T11:38:19;15.63;;;10.30;;
49217;SDS011;35045;51.194;7.268;2022-12-07T11:41:02;19.77;;;9.88;;
49217;SDS011;35045;51.194;7.268;2022-12-07T11:43:53;13.40;;;9.27;;
49217;SDS011;35045;51.194;7.268;2022-12-07T11:46:49;15.38;;;9.30;;
49217;SDS011;35045;51.194;7.268;2022-12-07T11:52:40;12.68;;;7.30;;
49217;SDS011;35045;51.194;7.268;2022-12-07T11:55:19;12.35;;;7.15;;
49217;SDS011;35045;51.194;7.268;2022-12-07T11:57:56;16.60;;;6.97;;
49217;SDS011;35045;51.194;7.268;2022-12-07T12:05:34;13.85;;;7.32;;
49217;SDS011;35045;51.194;7.268;2022-12-07T12:08:11;14.98;;;6.88;;
49217;SDS011;35045;51.194;7.268;2022-12-07T12:19:37;9.85;;;6.60;;
49217;SDS011;35045;51.194;7.268;2022-12-07T12:22:16;11.77;;;6.80;;
49217;SDS011;35045;51.194;7.268;2022-12-07T12:24:44;12.05;;;7.55;;
49217;SDS011;35045;51.194;7.268;2022-12-07T12:27:19;13.85;;;7.72;;
49217;SDS011;35045;51.194;7.268;2022-12-07T12:29:53;14.70;;;8.13;;
49217;SDS011;35045;51.194;7.268;2022-12-07T12:32:24;14.77;;;8.65;;
49217;SDS011;35045;51.194;7.268;2022-12-07T12:37:53;13.63;;;8.05;;
49217;SDS011;35045;51.194;7.268;2022-12-07T12:42:50;13.52;;;8.93;;
49217;SDS011;35045;51.194;7.268;2022-12-07T12:45:31;17.35;;;10.82;;
49217;SDS011;35045;51.194;7.268;2022-12-07T12:48:26;13.50;;;9.63;;
49217;SDS011;35045;51.194;7.268;2022-12-07T12:54:04;15.30;;;9.27;;
49217;SDS011;35045;51.194;7.268;2022-12-07T13:02:26;16.08;;;10.63;;
49217;SDS011;35045;51.194;7.268;2022-12-07T13:10:24;14.95;;;9.27;;
49217;SDS011;35045;51.194;7.268;2022-12-07T13:26:09;14.35;;;7.50;;
49217;SDS011;35045;51.194;7.268;2022-12-07T13:28:51;13.25;;;7.32;;
49217;SDS011;35045;51.194;7.268;2022-12-07T13:34:28;12.32;;;5.85;;
49217;SDS011;35045;51.194;7.268;2022-12-07T13:36:56;11.35;;;6.15;;
49217;SDS011;35045;51.194;7.268;2022-12-07T13:39:23;13.60;;;5.32;;
49217;SDS011;35045;51.194;7.268;2022-12-07T13:41:57;10.70;;;5.05;;
49217;SDS011;35045;51.194;7.268;2022-12-07T13:44:27;11.48;;;5.82;;
49217;SDS011;35045;51.194;7.268;2022-12-07T13:47:03;13.90;;;5.68;;
49217;SDS011;35045;51.194;7.268;2022-12-07T13:49:47;14.00;;;6.88;;
49217;SDS011;35045;51.194;7.268;2022-12-07T13:52:25;15.73;;;6.35;;
49217;SDS011;35045;51.194;7.268;2022-12-07T13:54:56;14.88;;;6.53;;
49217;SDS011;35045;51.194;7.268;2022-12-07T13:57:24;8.00;;;3.47;;
49217;SDS011;35045;51.194;7.268;2022-12-07T13:59:51;6.60;;;2.75;;
49217;SDS011;35045;51.194;7.268;2022-12-07T14:04:47;6.35;;;3.20;;
49217;SDS011;35045;51.194;7.268;2022-12-07T14:07:25;6.72;;;2.97;;
49217;SDS011;35045;51.194;7.268;2022-12-07T14:10:03;8.13;;;3.00;;
49217;SDS011;35045;51.194;7.268;2022-12-07T14:12:31;5.90;;;2.60;;
49217;SDS011;35045;51.194;7.268;2022-12-07T14:15:01;7.05;;;2.70;;
49217;SDS011;35045;51.194;7.268;2022-12-07T14:17:28;7.15;;;2.40;;
49217;SDS011;35045;51.194;7.268;2022-12-07T14:19:56;5.45;;;2.15;;
49217;SDS011;35045;51.194;7.268;2022-12-07T14:25:01;7.13;;;2.60;;
49217;SDS011;35045;51.194;7.268;2022-12-07T14:27:31;9.20;;;3.22;;
49217;SDS011;35045;51.194;7.268;2022-12-07T14:30:02;5.97;;;2.78;;
49217;SDS011;35045;51.194;7.268;2022-12-07T14:32:29;7.88;;;2.63;;
49217;SDS011;35045;51.194;7.268;2022-12-07T14:34:57;7.55;;;2.65;;
49217;SDS011;35045;51.194;7.268;2022-12-07T14:37:36;9.27;;;3.00;;
49217;SDS011;35045;51.194;7.268;2022-12-07T14:40:04;7.95;;;3.28;;
49217;SDS011;35045;51.194;7.268;2022-12-07T14:42:31;8.90;;;3.50;;
49217;SDS011;35045;51.194;7.268;2022-12-07T14:44:59;9.98;;;3.78;;
49217;SDS011;35045;51.194;7.268;2022-12-07T14:47:26;8.93;;;3.47;;
49217;SDS011;35045;51.194;7.268;2022-12-07T14:50:13;7.70;;;3.88;;
49217;SDS011;35045;51.194;7.268;2022-12-07T14:52:46;9.48;;;4.15;;
49217;SDS011;35045;51.194;7.268;2022-12-07T14:55:47;8.48;;;4.43;;
49217;SDS011;35045;51.194;7.268;2022-12-07T14:58:14;11.38;;;4.65;;
49217;SDS011;35045;51.194;7.268;2022-12-07T15:00:42;10.05;;;5.05;;
49217;SDS011;35045;51.194;7.268;2022-12-07T15:03:08;12.65;;;5.15;;
49217;SDS011;35045;51.194;7.268;2022-12-07T15:05:35;10.18;;;5.00;;
49217;SDS011;35045;51.194;7.268;2022-12-07T15:08:02;11.95;;;5.28;;
49217;SDS011;35045;51.194;7.268;2022-12-07T15:10:30;12.60;;;5.93;;
49217;SDS011;35045;51.194;7.268;2022-12-07T15:12:58;10.93;;;5.55;;
49217;SDS011;35045;51.194;7.268;2022-12-07T15:15:45;11.52;;;5.30;;
49217;SDS011;35045;51.194;7.268;2022-12-07T15:18:11;13.30;;;6.40;;
49217;SDS011;35045;51.194;7.268;2022-12-07T15:20:38;11.10;;;5.90;;
49217;SDS011;35045;51.194;7.268;2022-12-07T15:23:04;12.52;;;5.70;;
49217;SDS011;35045;51.194;7.268;2022-12-07T15:25:31;10.27;;;5.40;;
49217;SDS011;35045;51.194;7.268;2022-12-07T15:27:57;10.73;;;5.43;;
49217;SDS011;35045;51.194;7.268;2022-12-07T15:30:23;10.95;;;5.20;;
49217;SDS011;35045;51.194;7.268;2022-12-07T15:32:52;10.27;;;5.47;;
49217;SDS011;35045;51.194;7.268;2022-12-07T15:35:19;11.45;;;5.60;;
49217;SDS011;35045;51.194;7.268;2022-12-07T15:37:45;9.70;;;5.50;;
49217;SDS011;35045;51.194;7.268;2022-12-07T15:40:12;13.85;;;5.78;;
49217;SDS011;35045;51.194;7.268;2022-12-07T15:42:38;12.70;;;5.45;;
49217;SDS011;35045;51.194;7.268;2022-12-07T15:45:05;12.20;;;5.47;;
49217;SDS011;35045;51.194;7.268;2022-12-07T15:47:39;14.38;;;5.75;;
49217;SDS011;35045;51.194;7.268;2022-12-07T15:50:27;11.82;;;5.82;;
49217;SDS011;35045;51.194;7.268;2022-12-07T15:52:53;12.65;;;5.47;;
49217;SDS011;35045;51.194;7.268;2022-12-07T15:55:19;11.25;;;5.78;;
49217;SDS011;35045;51.194;7.268;2022-12-07T15:57:46;10.30;;;5.63;;
49217;SDS011;35045;51.194;7.268;2022-12-07T16:00:12;13.02;;;5.95;;
49217;SDS011;35045;51.194;7.268;2022-12-07T16:02:39;12.15;;;6.18;;
49217;SDS011;35045;51.194;7.268;2022-12-07T16:05:05;12.35;;;6.07;;
49217;SDS011;35045;51.194;7.268;2022-12-07T16:07:31;12.35;;;6.20;;
49217;SDS011;35045;51.194;7.268;2022-12-07T16:09:58;10.00;;;5.57;;
49217;SDS011;35045;51.194;7.268;2022-12-07T16:12:24;10.98;;;5.95;;
49217;SDS011;35045;51.194;7.268;2022-12-07T16:14:50;14.88;;;5.60;;
49217;SDS011;35045;51.194;7.268;2022-12-07T16:17:16;12.25;;;6.32;;
49217;SDS011;35045;51.194;7.268;2022-12-07T16:19:43;10.77;;;5.95;;
49217;SDS011;35045;51.194;7.268;2022-12-07T16:22:09;10.70;;;5.32;;
49217;SDS011;35045;51.194;7.268;2022-12-07T16:24:35;11.57;;;6.15;;
49217;SDS011;35045;51.194;7.268;2022-12-07T16:27:01;13.38;;;5.70;;
49217;SDS011;35045;51.194;7.268;2022-12-07T16:29:27;11.27;;;5.78;;
49217;SDS011;35045;51.194;7.268;2022-12-07T16:31:53;13.48;;;6.65;;
49217;SDS011;35045;51.194;7.268;2022-12-07T16:34:20;11.00;;;6.22;;
49217;SDS011;35045;51.194;7.268;2022-12-07T16:36:46;10.48;;;5.88;;
49217;SDS011;35045;51.194;7.268;2022-12-07T16:39:29;11.90;;;5.80;;
49217;SDS011;35045;51.194;7.268;2022-12-07T16:41:55;14.68;;;7.00;;
49217;SDS011;35045;51.194;7.268;2022-12-07T16:44:21;12.48;;;7.05;;